createdAt,value
2023-01-29T00:02:50.053Z,12.88
2023-01-29T00:05:52.296Z,9.05
2023-01-29T00:08:54.603Z,14.05
2023-01-29T00:11:57.237Z,10.05
2023-01-29T00:14:59.338Z,11.77
2023-01-29T00:18:02.520Z,9.82
2023-01-29T00:21:09.267Z,18.48
2023-01-29T00:24:11.852Z,12.68
2023-01-29T00:27:14.077Z,10.65
2023-01-29T00:30:20.108Z,12.88
2023-01-29T00:33:23.336Z,13.18
2023-01-29T00:36:26.739Z,12.38
2023-01-29T00:39:47.564Z,14.90
2023-01-29T00:43:09.055Z,13.70
2023-01-29T00:46:11.585Z,14.73
2023-01-29T00:49:13.826Z,12.57
2023-01-29T00:52:25.407Z,19.85
2023-01-29T00:55:27.645Z,15.35
2023-01-29T00:58:34.693Z,11.52
2023-01-29T01:01:55.707Z,12.48
2023-01-29T01:04:57.777Z,13.18
2023-01-29T01:07:59.932Z,15.18
2023-01-29T01:11:05.553Z,11.68
2023-01-29T01:14:08.155Z,11.48
2023-01-29T01:17:10.246Z,11.65
2023-01-29T01:20:13.519Z,13.68
2023-01-29T01:23:15.805Z,15.20
2023-01-29T01:26:19.008Z,14.18
2023-01-29T01:29:21.198Z,12.85
2023-01-29T01:32:23.295Z,13.90
2023-01-29T01:35:25.302Z,13.38
2023-01-29T01:38:27.643Z,14.77
2023-01-29T01:41:30.820Z,13.68
2023-01-29T01:45:18.683Z,11.85
2023-01-29T01:48:26.955Z,15.23
2023-01-29T01:51:32.949Z,12.30
2023-01-29T01:54:35.104Z,10.75
2023-01-29T01:57:37.289Z,11.35
2023-01-29T02:00:40.158Z,13.40
2023-01-29T02:04:06.674Z,11.63
2023-01-29T02:07:33.145Z,12.32
2023-01-29T02:10:46.914Z,14.65
2023-01-29T02:13:53.906Z,14.52
2023-01-29T02:17:01.873Z,15.18
2023-01-29T02:20:17.983Z,12.55
2023-01-29T02:23:38.271Z,21.45
2023-01-29T02:26:50.948Z,18.83
2023-01-29T02:30:09.367Z,13.05
2023-01-29T02:33:39.553Z,18.10
2023-01-29T02:36:49.259Z,15.10
2023-01-29T02:40:00.983Z,15.43
2023-01-29T02:43:11.858Z,16.40
2023-01-29T02:46:35.394Z,16.85
2023-01-29T02:50:07.629Z,14.55
2023-01-29T02:53:16.763Z,16.38
2023-01-29T02:56:25.821Z,16.67
2023-01-29T02:59:37.340Z,14.57
2023-01-29T03:02:54.562Z,11.88
2023-01-29T03:06:07.951Z,13.65
2023-01-29T03:09:16.719Z,18.42
2023-01-29T03:12:34.241Z,15.38
2023-01-29T03:15:47.598Z,21.27
2023-01-29T03:19:07.292Z,15.50
2023-01-29T03:22:11.574Z,12.45
2023-01-29T03:25:34.409Z,14.30
2023-01-29T03:28:55.919Z,13.77
2023-01-29T03:32:05.605Z,19.10
2023-01-29T03:35:11.506Z,22.25
2023-01-29T03:38:13.869Z,18.13
2023-01-29T03:41:22.536Z,20.15
2023-01-29T03:44:44.024Z,14.85
2023-01-29T03:48:16.656Z,17.33
2023-01-29T03:51:24.412Z,20.30
2023-01-29T03:54:49.620Z,15.07
2023-01-29T03:58:30.925Z,18.38
2023-01-29T04:01:42.991Z,18.40
2023-01-29T04:04:52.209Z,17.00
2023-01-29T04:08:03.228Z,18.20
2023-01-29T04:11:12.114Z,16.38
2023-01-29T04:14:15.175Z,17.45
2023-01-29T04:17:40.900Z,17.17
2023-01-29T04:20:55.189Z,17.85
2023-01-29T04:23:57.503Z,12.90
2023-01-29T04:27:28.366Z,13.43
2023-01-29T04:30:55.330Z,17.00
2023-01-29T04:34:25.867Z,11.98
2023-01-29T04:37:40.348Z,12.43
2023-01-29T04:41:12.239Z,13.27
2023-01-29T04:44:21.037Z,14.27
2023-01-29T04:47:45.050Z,14.07
2023-01-29T04:50:59.342Z,18.17
2023-01-29T04:54:16.599Z,14.00
2023-01-29T04:57:33.708Z,14.13
2023-01-29T05:00:43.252Z,12.98
2023-01-29T05:03:50.263Z,15.65
2023-01-29T05:06:53.485Z,19.33
2023-01-29T05:09:57.109Z,13.65
2023-01-29T05:13:03.385Z,11.88
2023-01-29T05:16:13.812Z,10.15
2023-01-29T05:19:17.017Z,12.18
2023-01-29T05:22:22.862Z,10.50
2023-01-29T05:25:28.894Z,12.70
2023-01-29T05:28:31.213Z,11.00
2023-01-29T05:31:33.519Z,12.45
2023-01-29T05:34:35.792Z,10.65
2023-01-29T05:37:37.886Z,11.00
2023-01-29T05:40:40.154Z,11.60
2023-01-29T05:43:42.169Z,12.68
2023-01-29T05:46:45.229Z,12.20
2023-01-29T05:49:47.467Z,14.95
2023-01-29T05:52:49.525Z,15.63
2023-01-29T05:55:51.898Z,10.18
2023-01-29T05:58:53.980Z,10.98
2023-01-29T06:01:56.463Z,11.07
2023-01-29T06:04:58.493Z,11.60
2023-01-29T06:08:00.655Z,12.98
2023-01-29T06:11:03.427Z,12.27
2023-01-29T06:14:05.587Z,14.68
2023-01-29T06:17:08.106Z,13.43
2023-01-29T06:20:10.874Z,10.50
2023-01-29T06:23:13.010Z,17.67
2023-01-29T06:26:16.390Z,15.43
2023-01-29T06:29:18.540Z,18.30
2023-01-29T06:32:20.716Z,16.42
2023-01-29T06:35:22.934Z,16.35
2023-01-29T06:38:26.680Z,19.60
2023-01-29T06:41:28.821Z,19.23
2023-01-29T06:44:30.835Z,15.93
2023-01-29T06:47:33.041Z,19.10
2023-01-29T06:50:35.050Z,17.40
2023-01-29T06:53:38.559Z,11.73
2023-01-29T06:56:40.854Z,16.17
2023-01-29T06:59:45.425Z,22.55
2023-01-29T07:02:50.399Z,18.23
2023-01-29T07:05:53.168Z,19.38
2023-01-29T07:08:55.958Z,14.65
2023-01-29T07:11:57.905Z,11.40
2023-01-29T07:15:00.196Z,15.02
2023-01-29T07:18:12.052Z,12.38
2023-01-29T07:21:14.159Z,12.00
2023-01-29T07:24:16.606Z,13.23
2023-01-29T07:27:18.709Z,15.30
2023-01-29T07:30:21.723Z,11.25
2023-01-29T07:33:24.100Z,13.90
2023-01-29T07:36:27.498Z,12.50
2023-01-29T07:39:29.549Z,12.07
2023-01-29T07:42:34.791Z,12.45
2023-01-29T07:45:38.968Z,10.75
2023-01-29T07:48:41.082Z,12.80
2023-01-29T07:51:43.098Z,11.48
2023-01-29T07:54:45.179Z,11.73
2023-01-29T07:57:47.738Z,14.73
2023-01-29T08:00:49.986Z,13.13
2023-01-29T08:04:02.031Z,14.65
2023-01-29T08:07:07.269Z,10.68
2023-01-29T08:10:09.968Z,18.50
2023-01-29T08:13:12.265Z,8.52
2023-01-29T08:16:14.713Z,12.05
2023-01-29T08:19:16.828Z,10.77
2023-01-29T08:22:18.892Z,8.80
2023-01-29T08:25:22.712Z,13.32
2023-01-29T08:28:25.152Z,12.18
2023-01-29T08:31:27.430Z,10.98
2023-01-29T08:34:29.548Z,11.90
2023-01-29T08:37:31.766Z,9.88
2023-01-29T08:40:35.209Z,7.82
2023-01-29T08:43:37.391Z,11.50
2023-01-29T08:46:40.945Z,8.00
2023-01-29T08:49:43.035Z,10.00
2023-01-29T08:52:45.729Z,10.82
2023-01-29T08:55:49.076Z,10.60
2023-01-29T08:58:52.023Z,11.60
2023-01-29T09:01:54.139Z,9.68
2023-01-29T09:04:56.582Z,9.20
2023-01-29T09:08:01.969Z,10.25
2023-01-29T09:11:05.686Z,14.55
2023-01-29T09:14:07.785Z,9.60
2023-01-29T09:17:09.818Z,11.40
2023-01-29T09:20:12.162Z,10.57
2023-01-29T09:23:14.297Z,8.48
2023-01-29T09:26:16.350Z,7.72
2023-01-29T09:29:20.911Z,10.35
2023-01-29T09:32:51.600Z,9.38
2023-01-29T09:35:49.129Z,8.80
2023-01-29T09:38:51.857Z,8.77
2023-01-29T09:42:19.087Z,12.43
2023-01-29T09:45:29.035Z,9.45
2023-01-29T09:48:34.586Z,11.77
2023-01-29T09:51:46.970Z,8.60
2023-01-29T09:55:22.765Z,9.50
2023-01-29T09:58:40.073Z,10.18
2023-01-29T10:02:27.812Z,13.30
2023-01-29T10:05:45.930Z,10.25
2023-01-29T10:09:25.524Z,11.63
2023-01-29T10:12:37.118Z,15.98
2023-01-29T10:15:50.123Z,7.68
2023-01-29T10:19:36.997Z,12.55
2023-01-29T10:22:55.467Z,7.82
2023-01-29T10:25:58.014Z,11.52
2023-01-29T10:29:07.265Z,15.77
2023-01-29T10:32:20.571Z,18.38
2023-01-29T10:35:32.219Z,16.17
2023-01-29T10:38:37.848Z,11.27
2023-01-29T10:42:17.958Z,15.27
2023-01-29T10:45:54.586Z,9.55
2023-01-29T10:49:11.569Z,8.43
2023-01-29T10:52:52.329Z,6.90
2023-01-29T10:56:22.643Z,10.18
2023-01-29T10:59:43.203Z,12.73
2023-01-29T11:02:50.835Z,9.70
2023-01-29T11:06:28.780Z,7.10
2023-01-29T11:09:37.263Z,6.85
2023-01-29T11:12:39.680Z,8.55
2023-01-29T11:15:41.818Z,9.32
2023-01-29T11:19:16.620Z,9.07
2023-01-29T11:22:21.615Z,17.05
2023-01-29T11:25:24.140Z,10.32
2023-01-29T11:28:39.488Z,9.52
2023-01-29T11:31:41.830Z,8.35
2023-01-29T11:35:03.349Z,9.00
2023-01-29T11:38:27.372Z,9.18
2023-01-29T11:41:29.407Z,8.77
2023-01-29T11:44:31.429Z,11.25
2023-01-29T11:47:34.076Z,6.68
2023-01-29T11:50:36.190Z,9.00
2023-01-29T11:53:45.246Z,12.90
2023-01-29T11:56:48.292Z,7.55
2023-01-29T11:59:52.699Z,10.95
2023-01-29T12:02:57.004Z,6.90
2023-01-29T12:06:03.905Z,11.88
2023-01-29T12:09:16.090Z,10.23
2023-01-29T12:12:42.390Z,9.15
2023-01-29T12:15:44.932Z,9.23
2023-01-29T12:18:53.388Z,9.38
2023-01-29T12:25:50.666Z,12.75
2023-01-29T12:29:22.420Z,11.77
2023-01-29T12:32:41.212Z,7.97
2023-01-29T12:35:57.754Z,10.48
2023-01-29T12:39:02.065Z,10.60
2023-01-29T12:42:31.073Z,10.00
2023-01-29T12:45:35.174Z,8.45
2023-01-29T12:48:40.164Z,9.18
2023-01-29T12:51:58.944Z,10.07
2023-01-29T12:55:06.701Z,12.55
2023-01-29T13:01:26.194Z,8.85
2023-01-29T13:04:34.463Z,11.75
2023-01-29T13:07:46.578Z,13.43
2023-01-29T13:10:54.165Z,13.57
2023-01-29T13:14:13.661Z,16.70
2023-01-29T13:17:34.321Z,13.05
2023-01-29T13:20:39.195Z,10.93
2023-01-29T13:23:48.621Z,13.50
2023-01-29T13:26:51.700Z,13.07
2023-01-29T13:29:55.503Z,13.57
2023-01-29T13:33:11.377Z,10.48
2023-01-29T13:36:26.384Z,11.90
2023-01-29T13:39:35.080Z,11.98
2023-01-29T13:45:49.363Z,13.13
2023-01-29T13:48:54.715Z,13.27
2023-01-29T13:51:57.869Z,12.32
2023-01-29T13:55:15.074Z,13.65
2023-01-29T13:58:42.311Z,11.95
2023-01-29T14:01:53.238Z,8.90
2023-01-29T14:05:29.194Z,11.77
2023-01-29T14:08:45.255Z,12.77
2023-01-29T14:11:51.362Z,11.70
2023-01-29T14:14:56.851Z,11.45
2023-01-29T14:18:14.022Z,13.52
2023-01-29T14:21:28.526Z,14.40
2023-01-29T14:24:31.382Z,13.82
2023-01-29T14:27:36.107Z,14.73
2023-01-29T14:30:40.556Z,15.43
2023-01-29T14:33:43.605Z,14.40
2023-01-29T14:36:50.551Z,17.90
2023-01-29T14:39:57.815Z,14.52
2023-01-29T14:43:27.226Z,16.80
2023-01-29T14:46:35.654Z,18.08
2023-01-29T14:49:58.309Z,17.02
2023-01-29T14:53:30.298Z,18.80
2023-01-29T14:56:41.060Z,19.15
2023-01-29T15:00:05.609Z,17.70
2023-01-29T15:03:33.940Z,26.05
2023-01-29T15:06:48.369Z,16.70
2023-01-29T15:10:13.501Z,21.70
2023-01-29T15:13:42.418Z,24.40
2023-01-29T15:17:05.576Z,22.52
2023-01-29T15:20:27.407Z,27.35
2023-01-29T15:23:32.079Z,17.88
2023-01-29T15:26:36.125Z,25.60
2023-01-29T15:29:38.968Z,25.17
2023-01-29T15:32:41.345Z,20.77
2023-01-29T15:35:43.641Z,18.05
2023-01-29T15:38:45.821Z,18.98
2023-01-29T15:41:48.574Z,16.48
2023-01-29T15:44:50.701Z,19.55
2023-01-29T15:47:55.652Z,19.38
2023-01-29T15:50:58.829Z,20.25
2023-01-29T15:54:03.895Z,16.30
2023-01-29T15:57:06.628Z,19.60
2023-01-29T16:00:22.328Z,23.38
2023-01-29T16:03:29.251Z,21.95
2023-01-29T16:06:38.188Z,20.92
2023-01-29T16:09:40.641Z,20.70
2023-01-29T16:12:43.227Z,21.92
2023-01-29T16:15:59.466Z,20.30
2023-01-29T16:19:01.708Z,22.33
2023-01-29T16:22:06.653Z,23.95
2023-01-29T16:25:14.588Z,23.10
2023-01-29T16:28:17.843Z,41.45
2023-01-29T16:31:28.778Z,25.10
2023-01-29T16:34:38.400Z,27.38
2023-01-29T16:37:40.521Z,26.30
2023-01-29T16:41:07.480Z,26.17
2023-01-29T16:44:21.588Z,20.50
2023-01-29T16:47:28.388Z,23.35
2023-01-29T16:50:38.287Z,24.00
2023-01-29T16:54:02.686Z,23.45
2023-01-29T17:00:15.531Z,29.02
2023-01-29T17:03:18.989Z,22.73
2023-01-29T17:06:27.607Z,25.95
2023-01-29T17:09:35.200Z,23.17
2023-01-29T17:12:38.922Z,19.70
2023-01-29T17:15:49.913Z,22.83
2023-01-29T17:18:52.528Z,24.45
2023-01-29T17:21:57.234Z,23.52
2023-01-29T17:24:59.495Z,27.55
2023-01-29T17:28:04.108Z,26.60
2023-01-29T17:31:09.555Z,22.60
2023-01-29T17:34:16.060Z,25.10
2023-01-29T17:37:18.285Z,26.58
2023-01-29T17:40:29.994Z,27.45
2023-01-29T17:43:32.265Z,25.83
2023-01-29T17:46:34.289Z,23.17
2023-01-29T17:49:37.933Z,28.35
2023-01-29T17:52:40.018Z,37.33
2023-01-29T17:55:42.674Z,25.27
2023-01-29T17:58:48.169Z,22.92
2023-01-29T18:01:51.294Z,28.25
2023-01-29T18:04:53.414Z,25.13
2023-01-29T18:07:55.680Z,20.70
2023-01-29T18:10:57.861Z,18.48
2023-01-29T18:14:01.291Z,21.38
2023-01-29T18:17:11.435Z,24.00
2023-01-29T18:20:25.696Z,21.52
2023-01-29T18:23:29.696Z,16.58
2023-01-29T18:26:33.997Z,21.10
2023-01-29T18:29:36.038Z,17.52
2023-01-29T18:32:38.509Z,22.65
2023-01-29T18:35:40.493Z,20.10
2023-01-29T18:38:42.622Z,18.05
2023-01-29T18:41:45.102Z,19.35
2023-01-29T18:44:47.392Z,24.35
2023-01-29T18:47:51.090Z,16.50
2023-01-29T18:50:53.249Z,17.95
2023-01-29T18:53:55.287Z,13.85
2023-01-29T18:57:13.248Z,13.65
2023-01-29T19:00:17.674Z,15.85
2023-01-29T19:03:19.869Z,12.95
2023-01-29T19:06:22.097Z,14.60
2023-01-29T19:09:26.348Z,13.25
2023-01-29T19:12:28.804Z,17.23
2023-01-29T19:15:30.882Z,15.48
2023-01-29T19:18:32.988Z,12.32
2023-01-29T19:21:38.732Z,20.38
2023-01-29T19:24:41.102Z,17.20
2023-01-29T19:27:43.374Z,14.98
2023-01-29T19:30:46.033Z,14.43
2023-01-29T19:33:48.940Z,12.35
2023-01-29T19:36:51.013Z,17.83
2023-01-29T19:39:53.967Z,11.05
2023-01-29T19:42:56.610Z,13.70
2023-01-29T19:46:00.918Z,21.05
2023-01-29T19:49:03.738Z,22.77
2023-01-29T19:52:07.571Z,16.77
2023-01-29T19:55:11.307Z,18.88
2023-01-29T19:58:14.052Z,15.88
2023-01-29T20:01:21.393Z,15.80
2023-01-29T20:04:23.632Z,19.25
2023-01-29T20:07:26.614Z,16.70
2023-01-29T20:10:28.751Z,18.60
2023-01-29T20:13:31.025Z,19.58
2023-01-29T20:16:33.145Z,16.23
2023-01-29T20:19:35.248Z,20.77
2023-01-29T20:22:38.416Z,19.65
2023-01-29T20:25:42.059Z,19.25
2023-01-29T20:28:48.328Z,15.18
2023-01-29T20:31:50.491Z,15.80
2023-01-29T20:34:52.558Z,17.73
2023-01-29T20:37:54.504Z,20.25
2023-01-29T20:41:04.573Z,18.25
2023-01-29T20:44:08.613Z,17.88
2023-01-29T20:47:10.734Z,23.23
2023-01-29T20:50:16.345Z,23.40
2023-01-29T20:53:18.755Z,25.05
2023-01-29T20:56:36.253Z,23.75
2023-01-29T20:59:45.336Z,22.17
2023-01-29T21:02:48.820Z,22.80
2023-01-29T21:05:53.570Z,21.08
2023-01-29T21:08:56.034Z,17.38
2023-01-29T21:11:59.406Z,19.90
2023-01-29T21:15:04.822Z,26.00
2023-01-29T21:18:07.092Z,21.67
2023-01-29T21:21:09.331Z,23.90
2023-01-29T21:24:13.124Z,19.90
2023-01-29T21:27:15.232Z,24.25
2023-01-29T21:30:19.879Z,24.00
2023-01-29T21:33:22.152Z,22.58
2023-01-29T21:36:32.662Z,22.50
2023-01-29T21:39:35.661Z,19.95
2023-01-29T21:42:58.019Z,21.55
2023-01-29T21:46:12.155Z,17.38
2023-01-29T21:49:16.663Z,26.08
2023-01-29T21:52:18.708Z,17.50
2023-01-29T21:55:20.756Z,19.77
2023-01-29T21:58:24.958Z,15.95
2023-01-29T22:01:37.656Z,24.00
2023-01-29T22:04:42.763Z,26.63
2023-01-29T22:07:48.216Z,15.73
2023-01-29T22:10:53.176Z,20.73
2023-01-29T22:13:58.353Z,18.17
2023-01-29T22:17:02.463Z,17.58
2023-01-29T22:20:05.990Z,17.42
2023-01-29T22:23:08.467Z,23.73
2023-01-29T22:26:15.271Z,14.85
2023-01-29T22:29:18.416Z,18.10
2023-01-29T22:32:20.673Z,15.95
2023-01-29T22:35:25.851Z,18.45
2023-01-29T22:38:31.638Z,15.20
2023-01-29T22:41:36.854Z,14.57
2023-01-29T22:44:41.821Z,16.90
2023-01-29T22:47:44.905Z,16.05
2023-01-29T22:50:53.077Z,18.92
2023-01-29T22:54:03.480Z,18.50
2023-01-29T22:57:10.242Z,24.73
2023-01-29T23:00:16.849Z,22.88
2023-01-29T23:03:19.256Z,16.60
2023-01-29T23:06:22.986Z,23.23
2023-01-29T23:09:26.706Z,18.20
2023-01-29T23:12:29.495Z,22.73
2023-01-29T23:15:31.566Z,20.25
2023-01-29T23:18:33.843Z,18.90
2023-01-29T23:21:36.022Z,20.40
2023-01-29T23:24:38.736Z,16.42
2023-01-29T23:27:41.239Z,24.25
2023-01-29T23:30:45.449Z,26.98
2023-01-29T23:33:51.089Z,29.23
2023-01-29T23:36:54.081Z,21.55
2023-01-29T23:39:56.066Z,19.65
2023-01-29T23:42:58.221Z,16.48
2023-01-29T23:46:01.951Z,19.65
2023-01-29T23:49:05.580Z,20.73
2023-01-29T23:52:11.373Z,36.97
2023-01-29T23:55:13.714Z,24.90
2023-01-29T23:58:15.675Z,26.25
